Time;durP1;ratioP1;P1;durP2;ratioP2;P2;SDS_P1;SDS_P2;PMS_P1;PMS_P2;Temp;Humidity;BMP_temperature;BMP_pressure;BME280_temperature;BME280_humidity;BME280_pressure;Samples;Min_cycle;Max_cycle;Signal;HPM_P1;HPM_P2
2023/03/30 00:00:33;;;;;;;;;;;;;;;24.16;27.14;101470.25;5088964;28;1065;-17
2023/03/30 00:03:01;;;;;;;;;;;;;;;24.09;27.31;101470.00;5089685;28;1344;-16
2023/03/30 00:05:30;;;;;;;;;;;;;;;24.06;27.35;101470.28;5085388;28;1902;-17
2023/03/30 00:07:56;;;;;;;;;;;;;;;24.07;27.25;101472.00;5079406;28;1066;-17
2023/03/30 00:10:21;;;;;;;;;;;;;;;24.09;27.34;101473.53;5086224;28;1042;-17
2023/03/30 00:12:49;;;;;;;;;;;;;;;24.07;27.39;101477.38;5092335;28;1114;-17
2023/03/30 00:15:15;;;;;;;;;;;;;;;24.06;27.45;101464.91;5076249;28;1130;-17
2023/03/30 00:17:41;;;;;;;;;;;;;;;24.06;27.32;101459.53;5089890;28;1071;-16
2023/03/30 00:20:10;;;;;;;;;;;;;;;24.14;27.43;101461.50;5085630;28;987;-21
2023/03/30 00:22:42;;;;;;;;;;;;;;;24.03;27.18;101467.88;5082255;28;1212;-17
2023/03/30 00:25:08;;;;;;;;;;;;;;;24.05;27.29;101463.22;5095988;28;1909;-17
2023/03/30 00:27:34;;;;;;;;;;;;;;;24.01;27.30;101461.81;5077139;28;1098;-16
2023/03/30 00:30:00;;;;;;;;;;;;;;;24.06;27.29;101465.75;5087456;28;1019;-17
2023/03/30 00:32:26;;;;;;;;;;;;;;;24.06;27.17;101455.00;5078038;28;1162;-16
2023/03/30 00:34:51;;;;;;;;;;;;;;;24.05;27.21;101465.91;5096074;28;1154;-17
2023/03/30 00:37:18;;;;;;;;;;;;;;;24.04;27.33;101462.38;5090688;28;1110;-17
2023/03/30 00:39:44;;;;;;;;;;;;;;;24.01;27.22;101457.28;5075894;28;1039;-17
2023/03/30 00:42:14;;;;;;;;;;;;;;;24.04;27.26;101458.84;5079487;28;1030;-17
2023/03/30 00:44:58;;;;;;;;;;;;;;;23.98;27.28;101457.56;5077611;28;1909;-17
2023/03/30 00:47:24;;;;;;;;;;;;;;;23.95;27.50;101460.56;5075741;28;1051;-18
2023/03/30 00:49:50;;;;;;;;;;;;;;;23.97;27.44;101442.47;5077567;28;927;-17
2023/03/30 00:52:18;;;;;;;;;;;;;;;23.93;27.33;101455.31;5070414;28;1014;-17
2023/03/30 00:54:44;;;;;;;;;;;;;;;23.94;27.39;101456.19;5090473;28;1046;-17
2023/03/30 00:57:09;;;;;;;;;;;;;;;23.91;27.42;101457.31;5077724;28;1112;-17
2023/03/30 00:59:35;;;;;;;;;;;;;;;23.99;27.29;101461.13;5082038;28;1073;-18
2023/03/30 01:02:00;;;;;;;;;;;;;;;23.90;27.34;101452.94;5088190;28;1000;-17
2023/03/30 01:04:27;;;;;;;;;;;;;;;23.91;27.37;101453.75;5088749;28;1075;-17
2023/03/30 01:06:54;;;;;;;;;;;;;;;23.92;27.27;101450.94;5083343;28;1082;-16
2023/03/30 01:09:19;;;;;;;;;;;;;;;23.91;27.51;101451.94;5063318;28;1158;-17
2023/03/30 01:11:45;;;;;;;;;;;;;;;23.96;27.35;101454.19;5075602;28;1099;-17
2023/03/30 01:14:11;;;;;;;;;;;;;;;23.87;27.42;101455.91;5059225;28;882;-17
2023/03/30 01:17:00;;;;;;;;;;;;;;;23.90;27.44;101457.44;5095640;28;1121;-17
2023/03/30 01:19:32;;;;;;;;;;;;;;;23.81;27.50;101451.94;5065755;28;1137;-16
2023/03/30 01:22:18;;;;;;;;;;;;;;;23.85;27.51;101453.38;5081238;28;1122;-16
2023/03/30 01:25:02;;;;;;;;;;;;;;;23.82;27.49;101453.63;5082134;28;1973;-17
2023/03/30 01:27:31;;;;;;;;;;;;;;;23.78;27.50;101451.38;5081194;28;1059;-17
2023/03/30 01:30:05;;;;;;;;;;;;;;;23.82;27.49;101458.19;5099527;28;1081;-16
2023/03/30 01:32:38;;;;;;;;;;;;;;;23.80;27.56;101457.47;5062625;28;1273;-16
2023/03/30 01:35:07;;;;;;;;;;;;;;;23.81;27.50;101459.16;5092242;28;1039;-16
2023/03/30 01:37:35;;;;;;;;;;;;;;;23.78;27.44;101451.38;5091759;28;1079;-17
2023/03/30 01:40:08;;;;;;;;;;;;;;;23.80;27.41;101454.78;5079515;28;1071;-17
2023/03/30 01:42:45;;;;;;;;;;;;;;;23.75;27.61;101457.91;5073249;28;1258;-17
2023/03/30 01:45:19;;;;;;;;;;;;;;;23.77;27.74;101460.44;5077962;28;1930;-16
2023/03/30 01:47:55;;;;;;;;;;;;;;;23.79;27.37;101464.66;5081307;28;1051;-17
2023/03/30 01:50:24;;;;;;;;;;;;;;;23.70;27.62;101460.16;5071285;28;1123;-17
2023/03/30 01:52:55;;;;;;;;;;;;;;;23.70;27.55;101460.16;5066788;28;1365;-16
2023/03/30 01:55:24;;;;;;;;;;;;;;;23.73;27.68;101459.88;5060735;28;1154;-16
2023/03/30 01:57:50;;;;;;;;;;;;;;;23.73;27.70;101465.25;5074140;28;1355;-17
2023/03/30 02:00:17;;;;;;;;;;;;;;;23.69;27.64;101464.69;5078578;28;1112;-18
2023/03/30 02:02:53;;;;;;;;;;;;;;;23.73;27.73;101465.25;5057763;28;1095;-16
2023/03/30 02:05:19;;;;;;;;;;;;;;;23.72;27.82;101459.00;5080657;28;1906;-17
2023/03/30 02:07:55;;;;;;;;;;;;;;;23.76;27.74;101454.22;5065188;28;1138;-17
2023/03/30 02:10:22;;;;;;;;;;;;;;;23.69;27.76;101451.25;5060157;28;1132;-16
2023/03/30 02:12:47;;;;;;;;;;;;;;;23.72;27.87;101463.56;5092198;28;1102;-16
2023/03/30 02:15:13;;;;;;;;;;;;;;;23.70;27.83;101461.03;5098430;28;1045;-16
2023/03/30 02:17:40;;;;;;;;;;;;;;;23.78;27.80;101471.03;5062997;28;1119;-15
2023/03/30 02:20:11;;;;;;;;;;;;;;;23.75;27.86;101475.84;5078641;28;1087;-16
2023/03/30 02:22:36;;;;;;;;;;;;;;;23.67;27.99;101473.88;5060298;28;1107;-16
2023/03/30 02:25:02;;;;;;;;;;;;;;;23.69;27.92;101478.09;5080099;28;1894;-17
2023/03/30 02:27:27;;;;;;;;;;;;;;;23.69;27.98;101466.53;5079860;28;1104;-17
2023/03/30 02:29:55;;;;;;;;;;;;;;;23.72;27.85;101477.81;5080334;28;1023;-16
2023/03/30 02:32:23;;;;;;;;;;;;;;;23.66;27.78;101477.53;5075054;28;1137;-17
2023/03/30 02:34:49;;;;;;;;;;;;;;;23.63;27.97;101470.63;5071552;28;1250;-16
2023/03/30 02:37:15;;;;;;;;;;;;;;;23.60;28.02;101474.44;5066082;28;1111;-16
2023/03/30 02:39:59;;;;;;;;;;;;;;;23.69;28.00;101475.41;5078714;28;1395;-16
2023/03/30 02:42:34;;;;;;;;;;;;;;;23.63;28.00;101475.13;5079528;28;1117;-17
2023/03/30 02:45:18;;;;;;;;;;;;;;;23.62;27.98;101486.88;5064785;28;1930;-17
2023/03/30 02:47:44;;;;;;;;;;;;;;;23.64;27.96;101482.22;5059477;28;1206;-16
2023/03/30 02:50:17;;;;;;;;;;;;;;;23.65;28.01;101482.09;5059494;28;1233;-17
2023/03/30 02:52:46;;;;;;;;;;;;;;;23.63;27.96;101485.88;5055437;28;1166;-16
2023/03/30 02:55:12;;;;;;;;;;;;;;;23.61;27.96;101477.97;5074073;28;1175;-17
2023/03/30 02:57:54;;;;;;;;;;;;;;;23.63;27.91;101475.13;5090514;28;1039;-18
2023/03/30 03:00:57;;;;;;;;;;;;;;;23.65;28.04;101467.78;5071721;28;1203;-16
2023/03/30 03:03:34;;;;;;;;;;;;;;;23.65;28.06;101478.53;5058736;28;2315;-17
2023/03/30 03:06:03;;;;;;;;;;;;;;;23.64;27.91;101483.06;5060621;28;1964;-17
2023/03/30 03:08:33;;;;;;;;;;;;;;;23.62;28.09;101476.13;5079116;28;1210;-17
2023/03/30 03:10:59;;;;;;;;;;;;;;;23.65;27.83;101486.59;5065069;28;1265;-16
2023/03/30 03:13:27;;;;;;;;;;;;;;;23.67;27.88;101490.00;5072371;28;1165;-17
2023/03/30 03:15:56;;;;;;;;;;;;;;;23.64;27.78;101493.78;5063369;28;1358;-17
2023/03/30 03:18:23;;;;;;;;;;;;;;;23.60;27.89;101485.19;5058696;28;1233;-17
2023/03/30 03:20:50;;;;;;;;;;;;;;;23.58;28.05;101497.91;5058824;28;1378;-16
2023/03/30 03:23:16;;;;;;;;;;;;;;;23.62;28.01;101501.16;5059294;28;1217;-17
2023/03/30 03:25:48;;;;;;;;;;;;;;;23.63;28.03;101502.84;5059563;28;1972;-17
2023/03/30 03:28:16;;;;;;;;;;;;;;;23.58;28.17;101503.28;5058988;28;1159;-17
2023/03/30 03:30:48;;;;;;;;;;;;;;;23.59;28.28;101510.34;5076774;28;1087;-17
2023/03/30 03:33:19;;;;;;;;;;;;;;;23.61;28.25;101507.50;5078456;28;1321;-17
2023/03/30 03:35:58;;;;;;;;;;;;;;;23.65;28.22;101511.63;5071633;28;1197;-17
2023/03/30 03:38:27;;;;;;;;;;;;;;;23.66;28.25;101507.09;5065541;28;1048;-16
2023/03/30 03:40:55;;;;;;;;;;;;;;;22.97;25.01;101510.50;5075052;28;2103;-18
2023/03/30 03:43:21;;;;;;;;;;;;;;;22.42;21.19;101504.41;5077064;28;1145;-18
2023/03/30 03:45:47;;;;;;;;;;;;;;;21.75;22.90;101504.66;5078423;28;1914;-18
2023/03/30 03:48:13;;;;;;;;;;;;;;;22.92;21.11;101516.25;5065282;28;1145;-17
2023/03/30 03:50:48;;;;;;;;;;;;;;;23.66;18.32;101512.47;5067286;28;1208;-17
2023/03/30 03:53:14;;;;;;;;;;;;;;;24.49;18.17;101510.25;5073701;28;1677;-18
2023/03/30 03:55:40;;;;;;;;;;;;;;;25.47;16.08;101510.75;5072403;28;1173;-18
2023/03/30 03:58:06;;;;;;;;;;;;;;;24.72;15.65;101508.06;5062757;28;1321;-17
2023/03/30 04:00:32;;;;;;;;;;;;;;;24.44;15.91;101508.84;5073303;28;1216;-17
2023/03/30 04:02:58;;;;;;;;;;;;;;;24.30;16.03;101509.31;5066604;28;1171;-16
2023/03/30 04:05:24;;;;;;;;;;;;;;;24.55;15.29;101513.22;5051705;28;1905;-17
2023/03/30 04:07:52;;;;;;;;;;;;;;;25.61;15.12;101517.47;5064688;28;1027;-18
2023/03/30 04:10:18;;;;;;;;;;;;;;;26.39;14.52;101513.22;5069849;28;1125;-18
2023/03/30 04:13:22;;;;;;;;;;;;;;;26.76;14.73;101519.31;5066764;28;1383;-17
2023/03/30 04:15:48;;;;;;;;;;;;;;;26.95;14.92;101516.53;5078019;28;942;-18
2023/03/30 04:18:37;;;;;;;;;;;;;;;26.78;15.04;101520.00;5068831;28;1436;-18
2023/03/30 04:21:11;;;;;;;;;;;;;;;27.02;15.47;101523.84;5083132;28;956;-18
2023/03/30 04:23:55;;;;;;;;;;;;;;;27.64;14.95;101526.34;5092187;28;1196;-18
2023/03/30 04:26:40;;;;;;;;;;;;;;;27.80;15.34;101524.66;5079304;28;1907;-17
2023/03/30 04:29:28;;;;;;;;;;;;;;;28.07;15.51;101520.78;5072894;28;1350;-18
2023/03/30 04:32:19;;;;;;;;;;;;;;;28.20;15.78;101532.94;5036349;28;1328;-18
2023/03/30 04:35:20;;;;;;;;;;;;;;;28.24;16.12;101527.00;5025099;28;1216;-18
2023/03/30 04:38:12;;;;;;;;;;;;;;;28.44;16.38;101537.50;5064647;28;1139;-16
2023/03/30 04:41:16;;;;;;;;;;;;;;;27.76;17.50;101543.09;5061604;28;1235;-18
2023/03/30 04:44:02;;;;;;;;;;;;;;;25.79;19.68;101537.19;5082832;28;1062;-18
2023/03/30 04:46:46;;;;;;;;;;;;;;;25.77;20.42;101541.91;5079469;28;1985;-18
2023/03/30 04:49:32;;;;;;;;;;;;;;;26.78;20.23;101540.75;5044497;28;1246;-18
2023/03/30 04:52:17;;;;;;;;;;;;;;;25.64;21.95;101550.34;5087250;28;806;-19
2023/03/30 04:54:59;;;;;;;;;;;;;;;25.78;21.32;101554.38;5077473;28;2117;-19
2023/03/30 04:57:25;;;;;;;;;;;;;;;26.81;19.91;101540.41;5099799;28;1006;-19
2023/03/30 05:00:12;;;;;;;;;;;;;;;27.08;19.97;101546.66;5084233;28;1189;-18
2023/03/30 05:03:16;;;;;;;;;;;;;;;27.25;20.27;101546.69;4997600;28;1206;-18
2023/03/30 05:06:17;;;;;;;;;;;;;;;26.92;20.43;101552.81;4959363;29;1899;-18
2023/03/30 05:09:10;;;;;;;;;;;;;;;25.98;22.11;101547.97;5058625;28;1489;-19
2023/03/30 05:11:57;;;;;;;;;;;;;;;26.53;21.55;101543.31;5081036;28;1188;-17
2023/03/30 05:14:49;;;;;;;;;;;;;;;27.10;20.89;101543.78;5049964;28;1184;-17
2023/03/30 05:17:44;;;;;;;;;;;;;;;27.48;20.59;101546.91;5067980;28;1270;-18
2023/03/30 05:20:22;;;;;;;;;;;;;;;26.52;21.76;101547.03;5081447;28;1134;-18
2023/03/30 05:23:06;;;;;;;;;;;;;;;26.10;22.22;101556.66;5085754;28;1201;-19
2023/03/30 05:25:53;;;;;;;;;;;;;;;26.78;22.20;101546.16;5037883;28;1918;-18
2023/03/30 05:28:31;;;;;;;;;;;;;;;26.85;21.98;101547.19;5087686;28;1241;-17
2023/03/30 05:31:13;;;;;;;;;;;;;;;26.83;22.24;101546.50;5078564;28;1315;-17
2023/03/30 05:33:57;;;;;;;;;;;;;;;26.60;21.51;101548.91;5097175;28;1012;-18
2023/03/30 05:36:41;;;;;;;;;;;;;;;26.70;20.28;101548.81;5090558;28;845;-17
2023/03/30 05:39:36;;;;;;;;;;;;;;;25.79;21.10;101545.28;5076289;28;1278;-18
2023/03/30 05:42:28;;;;;;;;;;;;;;;25.77;20.84;101554.53;5041786;28;1101;-18
2023/03/30 05:45:04;;;;;;;;;;;;;;;26.62;18.71;101557.72;5071742;28;1911;-18
2023/03/30 05:47:48;;;;;;;;;;;;;;;26.78;17.77;101555.09;5097429;28;1023;-17
2023/03/30 05:50:31;;;;;;;;;;;;;;;27.17;17.71;101566.44;5067770;28;1311;-17
2023/03/30 05:53:01;;;;;;;;;;;;;;;27.29;17.86;101568.81;5072835;28;1134;-16
2023/03/30 05:55:45;;;;;;;;;;;;;;;26.61;19.53;101556.84;5095816;28;995;-17
2023/03/30 05:58:29;;;;;;;;;;;;;;;26.09;20.39;101549.56;5080731;28;1267;-17
2023/03/30 06:01:12;;;;;;;;;;;;;;;26.69;20.29;101556.06;5089930;28;1004;-17
2023/03/30 06:03:40;;;;;;;;;;;;;;;27.15;20.25;101568.44;5065193;28;1441;-20
2023/03/30 06:06:08;;;;;;;;;;;;;;;27.61;19.86;101570.75;5059566;28;1905;-21
2023/03/30 06:08:34;;;;;;;;;;;;;;;26.46;21.06;101572.78;5079928;28;1199;-19
2023/03/30 06:11:02;;;;;;;;;;;;;;;26.06;21.70;101582.25;5075668;28;1899;-21
2023/03/30 06:13:37;;;;;;;;;;;;;;;26.47;21.74;101574.50;5072373;28;1262;-20
2023/03/30 06:16:02;;;;;;;;;;;;;;;26.30;21.96;101578.88;5072917;28;1251;-20
2023/03/30 06:18:28;;;;;;;;;;;;;;;26.62;21.85;101582.00;5064181;28;1300;-20
2023/03/30 06:21:05;;;;;;;;;;;;;;;26.51;21.81;101583.09;5070681;28;1690;-20
2023/03/30 06:23:36;;;;;;;;;;;;;;;26.70;21.71;101589.28;5079637;28;1421;-21
2023/03/30 06:26:06;;;;;;;;;;;;;;;27.13;20.66;101587.50;5079753;28;1914;-19
2023/03/30 06:28:34;;;;;;;;;;;;;;;27.46;20.40;101586.75;5089906;28;1411;-19
2023/03/30 06:31:01;;;;;;;;;;;;;;;27.64;20.31;101583.09;5067067;28;1388;-20
2023/03/30 06:33:29;;;;;;;;;;;;;;;26.32;20.77;101584.97;5070494;28;1215;-20
2023/03/30 06:35:57;;;;;;;;;;;;;;;26.10;20.71;101586.31;5066497;28;1306;-19
2023/03/30 06:38:22;;;;;;;;;;;;;;;27.09;19.29;101585.31;5079439;28;1138;-20
2023/03/30 06:40:50;;;;;;;;;;;;;;;26.97;18.95;101585.56;5073939;28;1222;-21
2023/03/30 06:43:19;;;;;;;;;;;;;;;26.95;18.36;101579.47;5060096;28;1318;-19
2023/03/30 06:45:54;;;;;;;;;;;;;;;27.09;17.82;101575.31;5062636;28;1981;-20
2023/03/30 06:48:21;;;;;;;;;;;;;;;26.07;16.53;101578.53;5082976;28;1300;-21
2023/03/30 06:50:53;;;;;;;;;;;;;;;25.46;18.49;101585.34;5069433;28;1127;-20
2023/03/30 06:53:22;;;;;;;;;;;;;;;26.31;18.50;101585.13;5074543;28;1504;-20
2023/03/30 06:55:51;;;;;;;;;;;;;;;26.87;17.42;101591.09;5068193;28;1389;-20
2023/03/30 06:58:17;;;;;;;;;;;;;;;25.45;16.09;101586.34;5066269;28;1426;-19
2023/03/30 07:00:45;;;;;;;;;;;;;;;24.58;17.01;101582.84;5076226;28;1290;-20
2023/03/30 07:03:51;;;;;;;;;;;;;;;26.03;17.63;101584.25;4980547;28;1492;-20
2023/03/30 07:06:23;;;;;;;;;;;;;;;25.98;17.46;101585.69;4978866;28;1969;-20
2023/03/30 07:08:49;;;;;;;;;;;;;;;24.43;17.74;101578.91;5030127;28;1285;-20
2023/03/30 07:11:21;;;;;;;;;;;;;;;26.69;16.22;101582.22;5065992;28;1476;-22
2023/03/30 07:13:48;;;;;;;;;;;;;;;27.09;16.64;101574.50;5079343;28;1174;-19
2023/03/30 07:16:13;;;;;;;;;;;;;;;26.03;18.64;101575.31;5078410;28;1157;-20
2023/03/30 07:18:39;;;;;;;;;;;;;;;25.71;18.76;101574.84;5079197;28;1401;-20
2023/03/30 07:21:05;;;;;;;;;;;;;;;26.83;17.93;101568.09;5075333;28;1094;-20
2023/03/30 07:23:37;;;;;;;;;;;;;;;27.19;18.43;101577.06;5069743;28;1309;-19
2023/03/30 07:26:03;;;;;;;;;;;;;;;27.32;18.69;101573.91;5066803;28;1918;-20
2023/03/30 07:28:49;;;;;;;;;;;;;;;27.45;18.86;101576.97;5076453;28;1331;-20
2023/03/30 07:31:16;;;;;;;;;;;;;;;27.36;19.26;101577.97;5060650;28;1265;-21
2023/03/30 07:33:42;;;;;;;;;;;;;;;26.17;20.95;101580.13;5078645;28;1148;-20
2023/03/30 07:36:12;;;;;;;;;;;;;;;26.88;20.60;101584.66;5071305;28;1274;-20
2023/03/30 07:38:37;;;;;;;;;;;;;;;27.47;19.61;101574.09;5089486;28;1201;-20
2023/03/30 07:41:07;;;;;;;;;;;;;;;26.68;21.10;101572.41;5077473;28;1265;-20
2023/03/30 07:43:33;;;;;;;;;;;;;;;26.27;21.03;101566.56;5070605;28;1355;-20
2023/03/30 07:45:59;;;;;;;;;;;;;;;26.83;21.09;101569.94;5072039;28;1902;-21
2023/03/30 07:48:31;;;;;;;;;;;;;;;27.04;21.08;101566.03;5062818;28;1246;-19
2023/03/30 07:51:01;;;;;;;;;;;;;;;27.49;20.41;101559.41;5062512;28;1212;-17
2023/03/30 07:53:28;;;;;;;;;;;;;;;26.88;20.63;101565.78;5070469;28;1138;-19
2023/03/30 07:55:54;;;;;;;;;;;;;;;26.36;21.73;101562.09;5075588;28;1643;-17
2023/03/30 07:58:27;;;;;;;;;;;;;;;27.05;21.17;101563.19;5060300;28;1333;-17
2023/03/30 08:00:53;;;;;;;;;;;;;;;27.33;21.32;101568.31;5076576;28;1366;-17
2023/03/30 08:03:54;;;;;;;;;;;;;;;27.68;20.80;101557.44;5076333;28;1203;-18
2023/03/30 08:06:21;;;;;;;;;;;;;;;26.88;21.85;101560.38;5058168;28;1902;-19
2023/03/30 08:08:51;;;;;;;;;;;;;;;26.88;21.72;101565.78;5058339;28;1284;-18
2023/03/30 08:11:17;;;;;;;;;;;;;;;27.07;21.21;101563.88;5058501;28;1144;-18
2023/03/30 08:13:43;;;;;;;;;;;;;;;27.37;21.03;101560.75;5073435;28;1338;-18
2023/03/30 08:16:09;;;;;;;;;;;;;;;27.63;21.21;101568.72;5067189;28;2017;-18
2023/03/30 08:18:36;;;;;;;;;;;;;;;27.09;21.02;101561.81;5082660;28;1121;-18
2023/03/30 08:21:02;;;;;;;;;;;;;;;26.70;21.93;101556.91;5086825;28;1126;-17
2023/03/30 08:23:27;;;;;;;;;;;;;;;27.52;21.15;101563.66;5089699;28;1263;-19
2023/03/30 08:25:56;;;;;;;;;;;;;;;27.70;20.73;101565.38;5086235;28;1898;-18
2023/03/30 08:28:22;;;;;;;;;;;;;;;27.06;21.46;101561.31;5095265;28;1062;-19
2023/03/30 08:30:48;;;;;;;;;;;;;;;26.99;21.53;101548.44;5085876;28;1118;-18
2023/03/30 08:33:14;;;;;;;;;;;;;;;27.22;21.00;101555.13;5083878;28;1246;-19
2023/03/30 08:35:42;;;;;;;;;;;;;;;27.56;20.77;101562.28;5086061;28;1073;-20
2023/03/30 08:38:08;;;;;;;;;;;;;;;27.09;20.73;101555.59;5093976;28;1118;-19
2023/03/30 08:40:37;;;;;;;;;;;;;;;27.08;21.44;101551.19;5076132;28;1094;-19
2023/03/30 08:43:03;;;;;;;;;;;;;;;27.32;21.37;101558.53;5080998;28;1210;-18
2023/03/30 08:45:35;;;;;;;;;;;;;;;27.61;21.28;101549.13;5084116;28;1894;-18
2023/03/30 08:48:01;;;;;;;;;;;;;;;27.35;21.63;101542.00;5058313;28;1047;-21
2023/03/30 08:50:30;;;;;;;;;;;;;;;27.03;21.20;101535.47;5081978;28;1221;-21
2023/03/30 08:52:56;;;;;;;;;;;;;;;27.08;21.00;101540.38;5078601;28;1041;-21
2023/03/30 08:55:31;;;;;;;;;;;;;;;27.12;21.49;101537.22;5089129;28;1122;-21
2023/03/30 08:58:10;;;;;;;;;;;;;;;27.51;20.80;101535.78;5058478;28;1234;-21
2023/03/30 09:00:38;;;;;;;;;;;;;;;26.81;16.24;101529.63;5085323;28;1433;-21
2023/03/30 09:03:11;;;;;;;;;;;;;;;26.86;16.88;101507.56;5089555;28;1265;-20
2023/03/30 09:05:37;;;;;;;;;;;;;;;26.78;18.81;101511.06;5064645;28;1965;-20
2023/03/30 09:08:03;;;;;;;;;;;;;;;26.93;18.54;101513.13;5077587;28;940;-18
2023/03/30 09:10:29;;;;;;;;;;;;;;;26.58;17.18;101518.53;5096005;28;1050;-18
2023/03/30 09:12:55;;;;;;;;;;;;;;;26.06;17.32;101512.97;5064471;28;1170;-18
2023/03/30 09:15:28;;;;;;;;;;;;;;;25.87;18.30;101519.41;5069778;28;1325;-20
2023/03/30 09:17:59;;;;;;;;;;;;;;;25.73;18.27;101510.88;5074692;28;952;-20
2023/03/30 09:20:29;;;;;;;;;;;;;;;25.26;18.12;101517.28;5095905;28;1309;-20
2023/03/30 09:22:55;;;;;;;;;;;;;;;26.28;18.22;101508.94;5077865;28;1023;-20
2023/03/30 09:25:27;;;;;;;;;;;;;;;26.07;17.66;101508.44;5073905;28;1905;-19
2023/03/30 09:27:57;;;;;;;;;;;;;;;26.88;17.42;101497.44;5086544;28;1153;-19
2023/03/30 09:30:39;;;;;;;;;;;;;;;26.06;17.63;101504.06;5059390;28;1044;-19
2023/03/30 09:33:06;;;;;;;;;;;;;;;26.16;16.35;101492.16;5095109;28;1122;-17
2023/03/30 09:35:41;;;;;;;;;;;;;;;26.26;16.77;101489.34;5077872;28;1162;-18
2023/03/30 09:38:10;;;;;;;;;;;;;;;26.16;16.98;101499.38;5082009;28;1309;-18
2023/03/30 09:40:39;;;;;;;;;;;;;;;25.63;17.64;101496.63;5095738;28;1094;-18
2023/03/30 09:43:23;;;;;;;;;;;;;;;25.69;18.00;101504.13;5093339;28;1359;-18
2023/03/30 09:45:48;;;;;;;;;;;;;;;26.27;17.82;101503.69;5086006;28;1983;-20
2023/03/30 09:48:15;;;;;;;;;;;;;;;26.39;18.64;101491.63;5081070;28;1111;-20
2023/03/30 09:50:41;;;;;;;;;;;;;;;26.56;18.62;101486.34;5081659;28;1289;-21
2023/03/30 09:53:33;;;;;;;;;;;;;;;26.31;19.67;101475.38;5086920;28;893;-20
2023/03/30 09:56:00;;;;;;;;;;;;;;;27.28;19.20;101488.81;5086848;28;1512;-21
2023/03/30 09:58:27;;;;;;;;;;;;;;;27.18;18.72;101483.53;5094285;28;1055;-20
2023/03/30 10:01:03;;;;;;;;;;;;;;;27.31;18.99;101488.47;5088949;28;1130;-21
2023/03/30 10:03:29;;;;;;;;;;;;;;;27.01;19.64;101475.34;5097572;28;1122;-21
2023/03/30 10:06:03;;;;;;;;;;;;;;;27.10;19.50;101485.22;5098029;28;1909;-21
2023/03/30 10:08:29;;;;;;;;;;;;;;;27.04;19.89;101480.47;5096000;28;1217;-21
2023/03/30 10:10:56;;;;;;;;;;;;;;;26.97;20.13;101472.16;5063676;28;1038;-21
2023/03/30 10:13:31;;;;;;;;;;;;;;;26.85;19.83;101476.16;5087668;28;1043;-21
2023/03/30 10:15:58;;;;;;;;;;;;;;;26.64;20.32;101467.47;5076781;28;1244;-21
2023/03/30 10:18:25;;;;;;;;;;;;;;;26.68;20.22;101472.53;5075619;28;1210;-21
2023/03/30 10:21:00;;;;;;;;;;;;;;;27.14;19.79;101458.72;5079298;28;1361;-21
2023/03/30 10:23:29;;;;;;;;;;;;;;;27.34;19.74;101463.81;5086045;28;1269;-21
2023/03/30 10:25:56;;;;;;;;;;;;;;;27.43;19.37;101461.94;5091005;28;1963;-21
2023/03/30 10:28:25;;;;;;;;;;;;;;;27.02;19.99;101463.59;5079515;28;1297;-22
2023/03/30 10:30:55;;;;;;;;;;;;;;;27.24;20.20;101464.81;5091149;28;1066;-21
2023/03/30 10:33:21;;;;;;;;;;;;;;;27.37;20.07;101464.34;5060662;28;1040;-21
2023/03/30 10:35:47;;;;;;;;;;;;;;;27.30;20.52;101451.66;5079816;28;1106;-21
2023/03/30 10:38:12;;;;;;;;;;;;;;;27.26;20.27;101443.88;5079512;28;1148;-22
2023/03/30 10:40:39;;;;;;;;;;;;;;;27.26;20.80;101451.97;5078297;28;1614;-21
2023/03/30 10:43:07;;;;;;;;;;;;;;;27.39;20.78;101451.47;5097440;28;1222;-21
2023/03/30 10:45:33;;;;;;;;;;;;;;;27.52;20.54;101450.16;5079776;28;1906;-22
2023/03/30 10:48:01;;;;;;;;;;;;;;;27.27;20.72;101447.44;5092235;28;1011;-21
2023/03/30 10:50:31;;;;;;;;;;;;;;;27.19;20.77;101453.69;5088460;28;1142;-19
2023/03/30 10:53:03;;;;;;;;;;;;;;;27.35;20.47;101443.88;5090033;28;1166;-19
2023/03/30 10:55:28;;;;;;;;;;;;;;;27.31;20.75;101446.06;5087597;28;1142;-19
2023/03/30 11:00:17;;;;;;;;;;;;;;;27.21;21.37;101446.22;5092726;28;1333;-28
2023/03/30 11:02:48;;;;;;;;;;;;;;;27.12;21.61;101429.19;5073552;28;1214;-29
2023/03/30 11:05:32;;;;;;;;;;;;;;;27.16;21.65;101429.69;5071771;28;1155;-34
2023/03/30 11:07:58;;;;;;;;;;;;;;;27.01;21.83;101422.25;5071989;28;1042;-34
2023/03/30 11:10:35;;;;;;;;;;;;;;;27.17;21.65;101423.28;5072882;28;1081;-31
2023/03/30 11:13:03;;;;;;;;;;;;;;;27.09;22.15;101417.88;5068694;28;1151;-33
2023/03/30 11:15:31;;;;;;;;;;;;;;;27.18;22.00;101421.41;5071658;28;1093;-36
2023/03/30 11:18:01;;;;;;;;;;;;;;;26.67;22.68;101419.59;5071496;28;1992;-33
2023/03/30 11:20:34;;;;;;;;;;;;;;;26.65;22.54;101414.34;5072006;28;1526;-34
2023/03/30 11:23:17;;;;;;;;;;;;;;;26.73;22.36;101402.75;5071612;28;1040;-33
2023/03/30 11:25:45;;;;;;;;;;;;;;;27.61;21.84;101407.75;5073215;28;1102;-34
2023/03/30 11:28:23;;;;;;;;;;;;;;;27.10;22.69;101392.56;5060252;28;1064;-31
2023/03/30 11:30:50;;;;;;;;;;;;;;;27.32;21.60;101392.91;5071325;28;1146;-35
2023/03/30 11:33:23;;;;;;;;;;;;;;;26.98;22.46;101397.38;5073098;28;1122;-31
2023/03/30 11:35:57;;;;;;;;;;;;;;;27.23;21.83;101397.44;5072780;28;1086;-36
2023/03/30 11:38:24;;;;;;;;;;;;;;;27.21;22.00;101383.28;5071873;28;1969;-33
2023/03/30 11:41:00;;;;;;;;;;;;;;;26.98;22.64;101382.03;5071769;28;1114;-31
2023/03/30 11:43:27;;;;;;;;;;;;;;;26.81;22.90;101383.88;5072500;28;867;-35
2023/03/30 11:45:59;;;;;;;;;;;;;;;26.91;22.83;101386.41;5070896;28;1103;-33
2023/03/30 11:48:28;;;;;;;;;;;;;;;27.31;22.50;101385.81;5072962;28;1016;-35
2023/03/30 11:51:12;;;;;;;;;;;;;;;27.31;22.50;101381.25;5071660;28;1223;-32
2023/03/30 11:53:42;;;;;;;;;;;;;;;27.38;22.49;101373.31;5072166;28;1054;-33
2023/03/30 11:56:12;;;;;;;;;;;;;;;27.24;22.97;101372.16;5071406;28;1027;-32
2023/03/30 11:59:02;;;;;;;;;;;;;;;27.30;23.14;101370.59;5080130;28;1906;-32
2023/03/30 12:01:31;;;;;;;;;;;;;;;27.30;22.93;101366.06;5076565;28;1333;-37
2023/03/30 12:04:09;;;;;;;;;;;;;;;27.43;23.45;101361.97;5092306;28;1235;-34
2023/03/30 12:06:35;;;;;;;;;;;;;;;27.40;22.93;101346.97;5092007;28;1289;-33
2023/03/30 12:09:00;;;;;;;;;;;;;;;27.42;22.89;101355.75;5092624;28;1214;-32
2023/03/30 12:11:58;;;;;;;;;;;;;;;27.36;23.05;101354.56;5079499;28;1230;-32
2023/03/30 12:14:24;;;;;;;;;;;;;;;27.58;23.26;101368.41;5022866;28;1233;-35
2023/03/30 12:16:50;;;;;;;;;;;;;;;27.32;23.27;101365.88;5079090;28;1292;-37
2023/03/30 12:19:18;;;;;;;;;;;;;;;27.39;23.18;101365.03;5060748;28;1973;-37
2023/03/30 12:21:45;;;;;;;;;;;;;;;27.38;23.37;101360.66;5061017;28;1202;-35
2023/03/30 12:24:34;;;;;;;;;;;;;;;27.37;23.83;101360.81;5060768;28;1226;-31
2023/03/30 12:27:00;;;;;;;;;;;;;;;27.65;23.07;101371.25;5066520;28;1156;-34
2023/03/30 12:29:41;;;;;;;;;;;;;;;27.67;22.82;101360.28;5078168;28;1278;-34
2023/03/30 12:32:17;;;;;;;;;;;;;;;27.54;23.13;101356.25;5067070;28;1164;-39
2023/03/30 12:34:43;;;;;;;;;;;;;;;27.56;23.18;101350.69;5078616;28;1294;-38
2023/03/30 12:37:12;;;;;;;;;;;;;;;27.49;23.44;101345.13;5078943;28;1238;-33
2023/03/30 12:39:47;;;;;;;;;;;;;;;27.53;23.79;101349.16;5078594;28;1979;-35
2023/03/30 12:42:25;;;;;;;;;;;;;;;27.61;24.01;101354.53;5077938;28;1246;-31
2023/03/30 12:44:51;;;;;;;;;;;;;;;27.56;24.40;101350.69;5077973;28;1210;-33
2023/03/30 12:47:29;;;;;;;;;;;;;;;27.72;23.70;101345.28;5078070;28;1270;-34
2023/03/30 12:50:14;;;;;;;;;;;;;;;27.50;24.17;101344.09;5078561;28;1264;-36
2023/03/30 12:52:47;;;;;;;;;;;;;;;27.70;23.51;101343.75;5078361;28;1110;-28
2023/03/30 12:55:21;;;;;;;;;;;;;;;27.32;23.03;101338.88;5059696;28;1155;-28
2023/03/30 12:57:50;;;;;;;;;;;;;;;27.22;22.81;101331.81;5077831;28;1914;-30
2023/03/30 13:00:18;;;;;;;;;;;;;;;27.09;22.68;101326.88;5077806;28;1151;-34
2023/03/30 13:02:50;;;;;;;;;;;;;;;27.20;23.07;101320.31;5077581;28;1246;-33
2023/03/30 13:05:36;;;;;;;;;;;;;;;27.13;22.97;101303.09;5051215;28;1535;-33
2023/03/30 13:08:03;;;;;;;;;;;;;;;27.23;22.91;101317.28;5063694;28;1440;-34
2023/03/30 13:10:29;;;;;;;;;;;;;;;27.25;23.16;101317.09;5069387;28;1210;-29
2023/03/30 13:12:55;;;;;;;;;;;;;;;26.98;22.91;101308.28;5070884;28;1195;-34
2023/03/30 13:15:40;;;;;;;;;;;;;;;27.08;22.55;101303.59;5059817;28;1304;-32